AirNav   Air Wisconsin Up To $57,000 Bonus
 
 1286 users online  

CO82 Land Airport
Keenesburg, Colorado, USA

GOING TO KEENESBURG?


FAA INFORMATION EFFECTIVE 15 AUGUST 2019

Location

FAA Identifier: CO82
Lat/Long: 40-05-44.9370N 104-35-21.8620W
40-05.748950N 104-35.364367W
40.0958158,-104.5894061
(estimated)
Elevation: 5000 ft. / 1524 m (estimated)
Variation: 11E (1985)
From city: 3 miles W of KEENESBURG, CO
Time zone: UTC -6 (UTC -7 during Standard Time)
Zip code: 80642

Airport Operations

Airport use: Private use. Permission required prior to landing
Control tower: no
ARTCC: DENVER CENTER
FSS: DENVER FLIGHT SERVICE STATION
Attendance: UNATNDD
Wind indicator: yes
Segmented circle: no

Airport Communications

WX ASOS at DEN (15 nm S): PHONE 303-342-1920
WX AWOS-3 at FTG (19 nm S): 119.025 (303-261-9104)

Nearby radio navigation aids

VOR radial/distance  VOR name  Freq  Var
DVVr360/12.2MILE HIGH VORTAC114.7008E
DENr003/17.3DENVER VOR/DME117.9008E
FQFr352/24.4FALCON VORTAC116.3011E
GLLr171/24.5GILL VOR/DME114.2013E
BJCr056/27.5JEFFCO VOR/DME115.4011E

Airport Services

Airframe service: NONE
Powerplant service: NONE

Runway Information

Runway 17/35

Dimensions: 3000 x 30 ft. / 914 x 9 m
Surface: asphalt
RUNWAY 17  RUNWAY 35
Traffic pattern: leftleft
Markings: basic
Obstructions: pline, 500 ft. from runwaynone

Runway 8/26

Dimensions: 1200 x 20 ft. / 366 x 6 m
Surface: concrete
RUNWAY 8  RUNWAY 26
Traffic pattern: leftleft
Obstructions: 100 ft. pline, 300 ft. from runway30 ft. pline, 75 ft. from runway

Airport Ownership and Management from official FAA records

Ownership: Privately-owned
Owner: LLOYD LAND
6511 WELD CO RD 51
KEENSBURG, CO 80643
Phone 303-536-0810
Manager: LLOYD LAND
6511 WELD CO RD 51
KEENSBURG, CO 80643
Phone 303-536-0810

Airport Operational Statistics

Aircraft based on the field: 7
Single engine airplanes: 7
    

Additional Remarks

BLDGS LOCATED MIDFIELD BETWEEN RYS 08/26 & 17/35.
FOR CD CTC DENVER APCH AT 303-342-1916.

Instrument Procedures

There are no published instrument procedures at CO82.

Some nearby airports with instrument procedures:

KDEN - Denver International Airport (15 nm S)
KFTG - Front Range Airport (19 nm S)
KGXY - Greeley-Weld County Airport (21 nm N)
KEIK - Erie Municipal Airport (22 nm W)
KBKF - Buckley Air Force Base (25 nm S)
 
Loc | Ops | Rwys | IFR | FBO | Links
Com | Nav | Svcs | Stats | Notes

AirBoss

 
Area around CO82 (Land Airport)
 
Road maps at: MapQuest Bing Google
 
Aerial photo
No photo
 
Sectional chart

 
Airport distance calculator
Flying to Land Airport? Find the distance to fly.

From to CO82

Sunrise and sunset
Times for 21-Aug-2019
 Local
(UTC-6)
 Zulu
(UTC)
Morning civil twilight05:4811:48
Sunrise06:1712:17
Sunset19:4601:46
Evening civil twilight20:1502:15

Current date and time
Zulu (UTC)  21-Aug-2019 13:33:09
Local (UTC-6)  21-Aug-2019 07:33:09
 
METAR
KDEN 
16nm S 
211253Z 19003KT 10SM BKN035 BKN130 17/14 A3024 RMK AO2 SLP163 T01670144
KFTG 
19nm S 
211255Z 25003KT 10SM FEW014 BKN033 17/15 A3026 RMK HZ WX
KGXY 
19nm N 
211256Z AUTO 00000KT 10SM 18/14 A3023 RMK AO2 SLP195 T01780144 $
TAF
KDEN 
16nm S 
211140Z 2112/2218 32005KT P6SM BKN012 BKN028 TEMPO 2112/2115 4SM BR BKN007 OVC015 FM211500 VRB05KT P6SM SCT015 SCT080 FM211800 05010G16KT P6SM SCT060 SCT120 TEMPO 2121/2201 VRB20G35KT -TSRA BKN050CB FM220300 21014KT P6SM SCT050 BKN100 FM220800 20010KT P6SM SCT080 SCT150
NOTAMs
Click for the latest NOTAMs
NOTAMs are issued by the DoD/FAA and will open in a separate window not controlled by AirNav.

 

 
 

Would you like to see your business listed on this page?

 If your business provides an interesting product or service to pilots, flight crews, aircraft, or users of the Land Airport, you should consider listing it here.  To start the listing process, click on the button below
 
Add a business
 

Other Pages about Land Airport

Update a link
 
Copyright © AirNav, LLC. All rights reserved. Privacy Policy  Contact